Time;durP1;ratioP1;P1;durP2;ratioP2;P2;SDS_P1;SDS_P2;PMS_P1;PMS_P2;Temp;Humidity;BMP_temperature;BMP_pressure;BME280_temperature;BME280_humidity;BME280_pressure;Samples;Min_cycle;Max_cycle;Signal;HPM_P1;HPM_P2
2022/03/23 00:01:34;;;;;;;10.37;3.57;;;;;;;7.99;59.14;100161.75;5136783;27;20250;-90
2022/03/23 00:03:59;;;;;;;7.30;3.90;;;;;;;8.01;59.00;100168.63;5136749;27;20171;-90
2022/03/23 00:06:25;;;;;;;17.30;4.93;;;;;;;8.07;59.13;100162.38;5152925;27;20198;-90
2022/03/23 00:08:51;;;;;;;11.93;3.80;;;;;;;8.10;58.89;100162.28;5135773;27;20187;-90
2022/03/23 00:11:17;;;;;;;13.83;4.60;;;;;;;8.06;59.45;100158.06;5136548;27;20586;-90
2022/03/23 00:13:42;;;;;;;5.40;2.73;;;;;;;7.99;60.07;100157.34;5136521;27;20269;-90
2022/03/23 00:16:08;;;;;;;15.83;3.60;;;;;;;8.11;59.16;100156.19;5152785;27;20175;-90
2022/03/23 00:18:34;;;;;;;7.70;4.30;;;;;;;8.11;58.79;100160.53;5135531;27;20175;-91
2022/03/23 00:20:59;;;;;;;8.47;3.80;;;;;;;8.06;58.97;100168.50;5152992;27;20644;-90
2022/03/23 00:23:25;;;;;;;6.67;3.77;;;;;;;7.90;59.50;100156.75;5152561;27;20235;-91
2022/03/23 00:25:51;;;;;;;8.73;3.43;;;;;;;7.72;60.41;100157.19;5136338;27;20573;-91
2022/03/23 00:28:18;;;;;;;6.97;4.13;;;;;;;7.88;59.63;100151.56;5152429;27;20189;-91
2022/03/23 00:30:43;;;;;;;6.13;3.83;;;;;;;7.82;59.84;100143.88;5136260;27;20292;-91
2022/03/23 00:33:09;;;;;;;7.57;2.80;;;;;;;7.72;60.12;100158.06;5136186;27;20336;-90
2022/03/23 00:35:34;;;;;;;7.53;4.20;;;;;;;7.71;59.20;100152.88;5136402;27;20181;-90
2022/03/23 00:38:00;;;;;;;6.43;3.77;;;;;;;7.70;59.43;100153.78;5136142;27;20623;-91
2022/03/23 00:40:28;;;;;;;8.23;4.13;;;;;;;7.59;59.15;100151.44;5135108;27;20204;-90
2022/03/23 00:42:56;;;;;;;5.30;2.97;;;;;;;7.60;58.41;100153.13;5135015;27;20189;-91
2022/03/23 00:45:22;;;;;;;4.00;2.60;;;;;;;7.39;59.22;100149.28;5135084;27;20249;-91
2022/03/23 00:47:48;;;;;;;7.10;1.87;;;;;;;7.11;60.12;100156.03;5136504;27;20591;-90
2022/03/23 00:50:15;;;;;;;7.87;3.03;;;;;;;7.01;60.24;100157.13;5134771;27;20199;-91
2022/03/23 00:52:42;;;;;;;6.90;2.63;;;;;;;7.14;59.93;100155.09;5135764;27;20167;-90
2022/03/23 00:55:09;;;;;;;5.43;2.50;;;;;;;6.93;60.78;100152.97;5135626;27;20167;-90
2022/03/23 00:57:36;;;;;;;4.43;2.90;;;;;;;6.87;60.83;100151.34;5136286;27;20173;-90
2022/03/23 01:00:04;;;;;;;4.80;2.33;;;;;;;6.93;59.89;100150.38;5135947;27;20601;-90
2022/03/23 01:02:29;;;;;;;7.97;2.43;;;;;;;7.03;59.33;100151.88;5135515;27;20194;-89
2022/03/23 01:04:54;;;;;;;5.37;2.10;;;;;;;7.06;58.21;100142.25;5135829;27;20213;-90
2022/03/23 01:07:20;;;;;;;4.20;1.70;;;;;;;6.84;58.64;100147.97;5135752;27;20172;-90
2022/03/23 01:09:45;;;;;;;2.70;1.60;;;;;;;6.73;58.34;100141.22;5135689;27;20193;-90
2022/03/23 01:12:11;;;;;;;10.27;2.83;;;;;;;6.53;57.83;100142.50;5134299;27;20186;-89
2022/03/23 01:14:37;;;;;;;4.40;2.10;;;;;;;6.45;57.83;100144.41;5135388;27;20186;-91
2022/03/23 01:17:02;;;;;;;6.20;2.63;;;;;;;6.47;57.27;100151.31;5151637;27;20179;-91
2022/03/23 01:19:28;;;;;;;5.17;2.40;;;;;;;6.33;57.86;100145.53;5151568;27;20238;-89
2022/03/23 01:21:54;;;;;;;4.20;1.43;;;;;;;6.31;57.22;100142.09;5135767;27;20302;-91
2022/03/23 01:24:20;;;;;;;4.27;2.07;;;;;;;6.27;57.03;100153.44;5135120;27;20209;-90
2022/03/23 01:26:46;;;;;;;3.67;2.17;;;;;;;6.45;56.00;100152.22;5151394;27;20182;-90
2022/03/23 01:29:13;;;;;;;3.83;1.80;;;;;;;6.52;54.94;100148.63;5134011;27;20193;-91
2022/03/23 01:31:39;;;;;;;4.33;2.47;;;;;;;6.31;55.43;100149.91;5135255;27;20169;-90
2022/03/23 01:34:04;;;;;;;4.13;1.60;;;;;;;6.29;55.59;100151.66;5151203;27;20771;-90
2022/03/23 01:36:30;;;;;;;2.30;1.47;;;;;;;6.09;56.00;100151.19;5133986;27;20201;-90
2022/03/23 01:38:57;;;;;;;4.80;2.60;;;;;;;6.08;56.01;100152.06;5134846;27;20213;-90
2022/03/23 01:41:24;;;;;;;6.87;1.70;;;;;;;6.15;55.66;100157.16;5135160;27;20167;-90
2022/03/23 01:43:50;;;;;;;2.10;1.17;;;;;;;6.07;55.49;100152.97;5135158;27;20258;-90
2022/03/23 01:46:17;;;;;;;2.90;1.30;;;;;;;6.08;55.38;100159.88;5134759;27;20230;-90
2022/03/23 01:48:44;;;;;;;8.20;2.00;;;;;;;6.12;54.64;100153.75;5134920;27;20186;-89
2022/03/23 01:51:10;;;;;;;3.43;1.60;;;;;;;6.18;54.45;100151.03;5134633;27;20177;-90
2022/03/23 01:53:36;;;;;;;6.83;2.40;;;;;;;6.24;53.91;100150.91;5134589;27;20167;-91
2022/03/23 01:56:02;;;;;;;5.60;1.67;;;;;;;6.15;54.00;100149.34;5133871;27;20626;-90
2022/03/23 01:58:27;;;;;;;2.70;1.67;;;;;;;6.13;54.01;100152.88;5134529;27;20247;-90
2022/03/23 02:00:53;;;;;;;2.67;1.53;;;;;;;6.09;54.29;100156.41;5134147;27;20576;-91
2022/03/23 02:03:18;;;;;;;3.27;1.30;;;;;;;6.00;53.76;100149.59;5150720;27;20586;-90
2022/03/23 02:05:44;;;;;;;2.87;1.80;;;;;;;6.04;53.82;100153.03;5134415;27;20219;-90
2022/03/23 02:08:11;;;;;;;5.00;2.00;;;;;;;6.23;53.29;100154.41;5134359;27;20529;-90
2022/03/23 02:10:37;;;;;;;2.63;1.43;;;;;;;6.17;53.45;100149.31;5134935;27;20180;-90
2022/03/23 02:13:03;;;;;;;8.33;1.50;;;;;;;6.37;52.62;100161.97;5134506;27;20183;-90
2022/03/23 02:15:29;;;;;;;6.97;2.90;;;;;;;6.42;52.42;100147.94;5150506;27;20191;-90
2022/03/23 02:17:57;;;;;;;1.47;1.37;;;;;;;6.37;52.43;100151.56;5133586;27;20172;-90
2022/03/23 02:20:24;;;;;;;2.10;1.23;;;;;;;6.31;52.73;100151.66;5134472;27;20254;-89
2022/03/23 02:22:50;;;;;;;2.43;1.10;;;;;;;6.42;52.44;100147.94;5134800;27;20200;-90
2022/03/23 02:25:21;;;;;;;2.00;1.30;;;;;;;6.24;52.64;100150.06;5134193;27;20555;-90
2022/03/23 02:27:47;;;;;;;3.43;1.83;;;;;;;6.12;52.94;100145.94;5150455;27;20167;-89
2022/03/23 02:30:13;;;;;;;5.03;1.30;;;;;;;5.90;53.36;100144.59;5134624;27;20192;-89
2022/03/23 02:32:39;;;;;;;2.63;1.53;;;;;;;5.98;53.60;100147.91;5150020;27;20176;-89
2022/03/23 02:35:07;;;;;;;1.63;1.00;;;;;;;5.93;53.86;100153.22;5134069;27;20251;-90
2022/03/23 02:37:32;;;;;;;9.23;2.77;;;;;;;5.89;53.80;100154.16;5134084;27;20170;-90
2022/03/23 02:39:58;;;;;;;3.47;1.03;;;;;;;5.91;53.86;100148.91;5134616;27;20182;-90
2022/03/23 02:42:23;;;;;;;3.67;1.17;;;;;;;5.99;53.06;100157.44;5134006;27;20235;-90
2022/03/23 02:44:49;;;;;;;1.30;0.97;;;;;;;6.18;53.31;100153.63;5134521;27;20195;-89
2022/03/23 02:47:14;;;;;;;2.67;1.10;;;;;;;6.23;52.47;100162.22;5150211;27;20186;-90
2022/03/23 02:49:40;;;;;;;6.30;2.67;;;;;;;6.07;52.59;100158.19;5133946;27;20196;-90
2022/03/23 02:52:05;;;;;;;1.67;1.07;;;;;;;6.22;52.52;100163.09;5133929;27;20549;-90
2022/03/23 03:03:33;;;;;;;2.30;1.00;;;;;;;5.98;52.86;100155.72;5133845;28;20212;-89
2022/03/23 03:05:58;;;;;;;3.20;1.37;;;;;;;6.03;52.41;100156.50;5133805;27;20172;-90
2022/03/23 03:11:08;;;;;;;7.23;0.77;;;;;;;6.28;51.90;100162.13;5133785;28;20177;-90
2022/03/23 03:13:34;;;;;;;5.73;1.20;;;;;;;6.36;51.51;100170.66;5149915;27;20658;-90
2022/03/23 03:16:02;;;;;;;1.37;0.83;;;;;;;6.35;51.43;100168.91;5133688;27;20165;-89
2022/03/23 03:18:31;;;;;;;0.90;0.60;;;;;;;6.22;51.80;100163.09;5133693;27;20176;-90
2022/03/23 03:20:57;;;;;;;3.03;1.07;;;;;;;6.27;51.79;100160.41;5132681;28;20222;-90
2022/03/23 03:23:23;;;;;;;2.93;1.03;;;;;;;6.18;51.48;100161.44;5133637;28;20175;-89
2022/03/23 03:25:49;;;;;;;2.37;0.93;;;;;;;6.14;51.87;100151.97;5132616;28;20172;-90
2022/03/23 03:28:15;;;;;;;5.60;1.60;;;;;;;5.98;52.03;100158.31;5133726;27;20183;-91
2022/03/23 03:30:40;;;;;;;4.43;1.17;;;;;;;5.79;52.99;100154.31;5149892;27;20180;-91
2022/03/23 03:33:06;;;;;;;3.83;1.67;;;;;;;5.64;53.09;100154.53;5133528;27;20677;-91
2022/03/23 03:35:31;;;;;;;1.27;0.90;;;;;;;5.81;52.42;100157.75;5133047;28;20691;-90
2022/03/23 03:37:57;;;;;;;3.40;1.30;;;;;;;5.70;52.49;100157.06;5149775;27;20539;-91
2022/03/23 03:40:22;;;;;;;1.93;0.90;;;;;;;5.67;52.55;100155.38;5133473;27;20536;-90
2022/03/23 03:42:48;;;;;;;7.17;0.70;;;;;;;5.76;52.19;100157.84;5133527;27;20179;-89
2022/03/23 03:45:13;;;;;;;2.53;1.30;;;;;;;5.76;52.18;100156.97;5151757;27;20278;-89
2022/03/23 03:47:39;;;;;;;3.03;1.60;;;;;;;5.77;51.96;100156.06;5153349;27;20228;-90
2022/03/23 03:50:04;;;;;;;1.37;0.80;;;;;;;5.68;51.78;100158.84;5153222;27;20190;-90
2022/03/23 03:52:30;;;;;;;1.47;0.90;;;;;;;5.61;51.71;100162.44;5137588;27;20232;-90
2022/03/23 03:54:55;;;;;;;5.10;1.13;;;;;;;5.74;51.58;100154.38;5136934;27;20187;-89
2022/03/23 03:57:21;;;;;;;1.73;1.20;;;;;;;5.64;51.50;100157.16;5137419;27;20172;-90
2022/03/23 03:59:46;;;;;;;9.17;1.30;;;;;;;5.88;51.12;100156.78;5153068;27;20177;-90
2022/03/23 04:02:14;;;;;;;2.30;1.10;;;;;;;6.04;50.78;100158.22;5137092;27;20173;-91
2022/03/23 04:04:39;;;;;;;0.83;0.70;;;;;;;5.94;50.70;100157.53;5153112;27;20679;-89
2022/03/23 04:07:05;;;;;;;0.97;0.70;;;;;;;5.88;50.82;100157.66;5153035;27;20233;-91
2022/03/23 04:09:30;;;;;;;0.57;0.33;;;;;;;5.88;50.59;100161.97;5136612;27;20291;-89
2022/03/23 04:11:56;;;;;;;1.33;0.87;;;;;;;5.84;50.67;100168.09;5135479;27;20208;-89
2022/03/23 04:14:21;;;;;;;3.00;1.60;;;;;;;5.78;51.07;100171.66;5136860;27;20160;-90
2022/03/23 04:16:47;;;;;;;4.70;1.80;;;;;;;5.65;51.18;100169.28;5135634;27;20748;-90
2022/03/23 04:19:12;;;;;;;2.00;1.00;;;;;;;5.70;51.09;100170.06;5136494;27;20623;-90
2022/03/23 04:21:37;;;;;;;1.47;1.13;;;;;;;5.78;50.65;100170.78;5136434;27;20182;-90
2022/03/23 04:24:03;;;;;;;1.90;0.90;;;;;;;5.86;50.39;100172.44;5136926;27;20178;-90
2022/03/23 04:26:29;;;;;;;3.63;1.53;;;;;;;5.82;50.21;100175.06;5152697;27;20181;-90
2022/03/23 04:28:54;;;;;;;3.70;1.37;;;;;;;5.75;50.59;100165.63;5136519;27;20209;-89
2022/03/23 04:31:20;;;;;;;1.87;0.80;;;;;;;5.80;50.33;100169.88;5136518;27;20171;-90
2022/03/23 04:33:46;;;;;;;4.23;1.23;;;;;;;5.87;50.20;100171.53;5152492;27;20615;-91
2022/03/23 04:36:11;;;;;;;1.43;1.13;;;;;;;5.79;50.44;100169.94;5153034;27;20182;-90
2022/03/23 04:38:37;;;;;;;7.27;1.27;;;;;;;5.69;50.72;100176.13;5152499;27;20175;-90
2022/03/23 04:41:04;;;;;;;0.77;0.60;;;;;;;5.80;50.35;100171.63;5136665;27;20199;-91
2022/03/23 04:43:30;;;;;;;1.43;0.83;;;;;;;5.78;50.65;100171.66;5136333;27;20167;-90
2022/03/23 04:45:56;;;;;;;2.60;1.20;;;;;;;5.83;50.45;100172.44;5136238;27;20223;-88
2022/03/23 04:48:21;;;;;;;2.87;1.23;;;;;;;5.97;50.09;100167.03;5135483;27;20621;-90
2022/03/23 04:50:48;;;;;;;5.90;1.10;;;;;;;5.83;50.66;100179.38;5136179;27;20179;-90
2022/03/23 04:53:15;;;;;;;1.23;0.63;;;;;;;5.98;50.33;100166.13;5136129;27;20179;-90
2022/03/23 04:55:40;;;;;;;2.53;1.20;;;;;;;5.94;50.47;100172.28;5134533;27;20602;-90
2022/03/23 04:58:06;;;;;;;2.43;1.07;;;;;;;6.03;49.70;100169.50;5135734;27;20257;-90
2022/03/23 05:00:34;;;;;;;3.00;1.67;;;;;;;6.24;49.68;100171.72;5135682;27;20246;-90
2022/03/23 05:03:00;;;;;;;1.43;0.70;;;;;;;6.34;49.14;100164.63;5135815;27;20249;-91
2022/03/23 05:05:26;;;;;;;2.40;1.57;;;;;;;6.44;49.42;100163.56;5134579;27;20183;-90
2022/03/23 05:07:52;;;;;;;2.40;1.17;;;;;;;6.61;49.21;100166.66;5135609;27;20643;-90
2022/03/23 05:10:18;;;;;;;2.77;1.13;;;;;;;6.63;48.67;100170.97;5134403;27;20286;-90
2022/03/23 05:12:44;;;;;;;2.63;1.40;;;;;;;6.72;48.91;100175.13;5135513;27;20272;-90
2022/03/23 05:15:11;;;;;;;2.07;0.90;;;;;;;6.55;48.96;100172.84;5135612;27;20492;-91
2022/03/23 05:17:37;;;;;;;4.20;2.00;;;;;;;6.42;48.71;100173.97;5134359;27;20252;-90
2022/03/23 05:20:04;;;;;;;10.67;3.77;;;;;;;6.67;49.30;100176.97;5135507;27;20199;-90
2022/03/23 05:22:30;;;;;;;6.23;1.90;;;;;;;6.76;48.58;100176.81;5151533;27;20633;-90
2022/03/23 05:24:56;;;;;;;3.90;1.97;;;;;;;6.69;48.92;100181.25;5134267;27;20546;-89
2022/03/23 05:27:21;;;;;;;3.43;0.87;;;;;;;6.87;48.62;100177.41;5135216;27;20631;-91
2022/03/23 05:29:47;;;;;;;0.73;0.57;;;;;;;7.58;47.58;100174.94;5134041;27;20213;-90
2022/03/23 05:32:16;;;;;;;1.67;1.10;;;;;;;7.99;46.80;100174.78;5135050;27;20190;-92
2022/03/23 05:34:43;;;;;;;3.07;1.70;;;;;;;8.34;46.33;100177.34;5151672;27;20537;-89
2022/03/23 05:37:09;;;;;;;6.93;1.67;;;;;;;8.76;45.30;100183.16;5151226;27;20207;-90
2022/03/23 05:39:35;;;;;;;2.90;0.67;;;;;;;8.71;44.29;100173.72;5151212;27;20246;-90
2022/03/23 05:42:00;;;;;;;1.50;1.10;;;;;;;8.85;44.10;100184.66;5134218;27;20175;-89
2022/03/23 05:44:25;;;;;;;2.10;1.13;;;;;;;9.25;43.84;100183.41;5134803;27;20254;-90
2022/03/23 05:46:51;;;;;;;4.10;1.30;;;;;;;9.67;43.44;100175.13;5151895;27;20211;-90
2022/03/23 05:49:17;;;;;;;4.83;1.50;;;;;;;9.49;42.67;100175.69;5133931;27;20716;-90
2022/03/23 05:51:43;;;;;;;4.03;1.37;;;;;;;9.86;42.35;100171.00;5133673;27;20182;-89
2022/03/23 05:54:08;;;;;;;1.73;0.83;;;;;;;10.22;41.42;100177.63;5134084;27;20267;-91
2022/03/23 05:56:34;;;;;;;3.07;1.07;;;;;;;10.70;41.07;100172.41;5134176;27;20554;-89
2022/03/23 05:58:59;;;;;;;1.33;0.70;;;;;;;11.03;39.73;100173.78;5150784;27;20546;-91
2022/03/23 06:01:25;;;;;;;2.87;1.50;;;;;;;10.93;40.04;100174.19;5147041;27;20176;-91
2022/03/23 06:03:50;;;;;;;3.47;1.73;;;;;;;10.91;40.03;100166.38;5123607;27;20186;-89
2022/03/23 06:06:16;;;;;;;3.57;1.30;;;;;;;11.16;40.19;100175.97;5134406;27;20194;-90
2022/03/23 06:08:42;;;;;;;2.20;1.00;;;;;;;11.27;40.22;100173.78;5105273;27;20206;-91
2022/03/23 06:11:08;;;;;;;7.77;2.70;;;;;;;11.74;40.02;100170.13;5102221;28;20248;-91
2022/03/23 06:13:33;;;;;;;13.97;1.90;;;;;;;11.88;38.35;100152.03;5105564;27;20226;-91
2022/03/23 06:15:59;;;;;;;4.33;1.87;;;;;;;11.83;38.78;100164.50;5120016;27;20174;-89
2022/03/23 06:18:25;;;;;;;4.10;0.90;;;;;;;12.32;37.24;100160.66;5104952;28;20195;-91
2022/03/23 06:20:51;;;;;;;4.40;1.67;;;;;;;12.28;37.64;100162.56;5095750;28;20179;-89
2022/03/23 06:23:16;;;;;;;2.27;0.97;;;;;;;12.90;37.95;100157.13;5095730;28;20276;-90
2022/03/23 06:25:42;;;;;;;3.03;0.90;;;;;;;13.85;35.59;100151.72;5113941;28;20620;-90
2022/03/23 06:28:07;;;;;;;1.77;0.90;;;;;;;14.39;33.91;100150.72;5113541;28;20646;-90
2022/03/23 06:30:34;;;;;;;3.73;1.20;;;;;;;14.34;33.58;100150.09;5114132;28;20188;-92
2022/03/23 06:33:00;;;;;;;3.00;1.00;;;;;;;14.69;32.86;100150.91;5113567;28;20236;-90
2022/03/23 06:35:27;;;;;;;11.37;1.90;;;;;;;15.17;32.41;100163.25;5113785;28;20171;-91
2022/03/23 06:37:52;;;;;;;3.00;1.10;;;;;;;14.93;31.92;100146.09;5114054;28;20239;-88
2022/03/23 06:40:19;;;;;;;3.07;1.23;;;;;;;15.39;32.26;100147.88;5095496;28;20608;-90
2022/03/23 06:42:45;;;;;;;2.67;1.27;;;;;;;15.02;31.81;100150.84;5113701;28;20171;-89
2022/03/23 06:45:10;;;;;;;2.97;1.13;;;;;;;13.95;32.97;100155.59;5113808;28;20173;-88
2022/03/23 06:47:35;;;;;;;1.03;0.67;;;;;;;13.68;31.40;100156.94;5113721;28;20182;-88
2022/03/23 06:50:01;;;;;;;2.97;1.33;;;;;;;13.95;32.04;100150.31;5095435;28;20300;-87
2022/03/23 06:52:26;;;;;;;3.93;1.30;;;;;;;13.85;32.04;100149.06;5113356;28;20258;-87
2022/03/23 06:54:52;;;;;;;2.83;1.13;;;;;;;13.90;32.42;100152.34;5113440;28;20530;-87
2022/03/23 06:57:17;;;;;;;2.83;0.83;;;;;;;13.58;32.47;100145.16;5113514;28;20171;-90
2022/03/23 06:59:43;;;;;;;2.30;0.97;;;;;;;14.18;32.39;100150.97;5095708;28;20180;-87
2022/03/23 07:02:10;;;;;;;2.67;1.47;;;;;;;14.36;31.28;100142.94;5113289;28;20176;-87
2022/03/23 07:04:36;;;;;;;1.90;1.07;;;;;;;14.09;31.13;100150.50;5095600;28;20591;-87
2022/03/23 07:07:01;;;;;;;2.73;1.17;;;;;;;14.20;30.98;100149.94;5113242;28;20187;-88
2022/03/23 07:09:34;;;;;;;4.00;0.90;;;;;;;13.79;31.03;100130.06;5100581;28;20211;-89
2022/03/23 07:12:01;;;;;;;1.67;0.90;;;;;;;13.74;31.11;100140.84;5122893;28;20164;-88
2022/03/23 07:14:30;;;;;;;1.13;0.57;;;;;;;13.09;31.17;100146.66;5121588;28;20180;-88
2022/03/23 07:16:56;;;;;;;2.23;1.20;;;;;;;13.52;32.23;100145.47;5118793;28;20175;-89
2022/03/23 07:19:22;;;;;;;3.63;1.50;;;;;;;13.65;32.17;100149.22;5105960;27;20326;-88
2022/03/23 07:21:49;;;;;;;1.67;0.70;;;;;;;13.25;31.25;100142.38;5126043;27;20180;-87
2022/03/23 07:24:15;;;;;;;3.57;1.03;;;;;;;12.71;31.25;100151.00;5125758;27;20171;-89
2022/03/23 07:26:40;;;;;;;1.10;0.67;;;;;;;12.99;31.82;100144.47;5107345;27;20553;-88
2022/03/23 07:29:07;;;;;;;1.60;0.47;;;;;;;12.92;31.16;100150.03;5108633;27;20652;-88
2022/03/23 07:31:33;;;;;;;1.73;0.77;;;;;;;12.79;30.46;100142.75;5109038;27;20515;-94
2022/03/23 07:33:58;;;;;;;1.40;0.50;;;;;;;12.56;30.81;100145.56;5126050;27;20176;-90
2022/03/23 07:36:24;;;;;;;1.53;0.60;;;;;;;12.54;30.45;100143.03;5124811;27;20275;-89
2022/03/23 07:38:50;;;;;;;6.33;1.20;;;;;;;12.46;30.10;100145.13;5124070;27;20174;-88
2022/03/23 07:41:16;;;;;;;1.97;1.20;;;;;;;12.57;30.15;100132.38;5106180;27;20183;-90
2022/03/23 07:43:41;;;;;;;1.97;0.80;;;;;;;12.85;29.44;100142.47;5108855;27;20175;-88
2022/03/23 07:46:07;;;;;;;1.50;0.50;;;;;;;12.78;29.12;100148.97;5126614;27;20609;-88
2022/03/23 07:48:33;;;;;;;0.33;0.27;;;;;;;12.71;29.36;100139.66;5108155;27;20178;-88
2022/03/23 07:51:26;;;;;;;1.63;0.83;;;;;;;13.12;28.78;100129.84;5124603;27;20638;-90
2022/03/23 07:53:51;;;;;;;1.87;1.10;;;;;;;12.81;29.83;100143.56;5108733;27;20171;-88
2022/03/23 07:56:17;;;;;;;2.67;0.40;;;;;;;12.54;28.59;100132.50;5101352;28;20180;-93
2022/03/23 07:58:42;;;;;;;2.17;1.10;;;;;;;12.46;29.55;100124.09;5098781;28;20177;-91
2022/03/23 08:01:08;;;;;;;2.70;0.90;;;;;;;12.85;28.93;100121.44;5098412;28;20208;-89
2022/03/23 08:03:33;;;;;;;4.60;1.30;;;;;;;12.76;29.03;100122.69;5116264;28;20187;-90
2022/03/23 08:05:59;;;;;;;1.97;1.20;;;;;;;12.42;28.33;100132.19;5098886;28;20266;-92
2022/03/23 08:08:24;;;;;;;3.67;1.07;;;;;;;12.49;28.54;100134.47;5120595;27;20207;-96
2022/03/23 08:10:50;;;;;;;2.27;0.67;;;;;;;12.76;28.98;100127.13;5112130;27;20182;-89
2022/03/23 08:13:19;;;;;;;2.00;1.07;;;;;;;12.97;28.62;100114.75;5129910;27;20187;-94
2022/03/23 08:15:44;;;;;;;1.60;0.73;;;;;;;12.72;27.97;100125.56;5126349;27;20233;-91
2022/03/23 08:18:10;;;;;;;3.07;0.90;;;;;;;12.40;27.79;100119.09;5116970;28;20621;-90
2022/03/23 08:20:36;;;;;;;1.80;0.77;;;;;;;12.51;28.92;100111.59;5115853;28;20176;-89
2022/03/23 08:23:07;;;;;;;1.73;0.93;;;;;;;12.93;28.10;100104.38;5115809;28;20190;-89
2022/03/23 08:25:33;;;;;;;7.40;1.80;;;;;;;13.27;28.43;100108.06;5096968;28;20279;-89
2022/03/23 08:28:02;;;;;;;1.47;0.90;;;;;;;13.35;27.48;100080.44;5097903;28;20187;-96
2022/03/23 08:30:28;;;;;;;1.87;0.93;;;;;;;13.15;28.76;100100.75;5101204;27;20244;-93
2022/03/23 08:32:53;;;;;;;1.30;0.60;;;;;;;13.14;28.18;100109.56;5097837;28;20632;-91
2022/03/23 08:35:19;;;;;;;0.90;0.50;;;;;;;13.22;26.71;100099.53;5097944;28;20201;-89
2022/03/23 08:37:45;;;;;;;1.60;0.83;;;;;;;13.33;27.11;100105.16;5115894;28;20240;-90
2022/03/23 08:40:12;;;;;;;1.73;1.07;;;;;;;13.38;27.73;100089.97;5115799;28;20629;-92
2022/03/23 08:42:37;;;;;;;1.00;0.60;;;;;;;13.38;26.59;100089.97;5115634;28;20266;-90
2022/03/23 08:45:05;;;;;;;3.47;0.97;;;;;;;13.44;27.18;100094.94;5097798;28;20668;-90
2022/03/23 08:47:30;;;;;;;1.00;0.63;;;;;;;13.39;26.70;100087.25;5115295;28;20174;-89
2022/03/23 08:49:56;;;;;;;4.03;1.33;;;;;;;13.69;27.10;100095.44;5097200;28;20206;-91
2022/03/23 08:52:24;;;;;;;1.20;0.70;;;;;;;13.98;26.49;100086.06;5115275;28;20179;-91
2022/03/23 08:54:52;;;;;;;2.23;0.87;;;;;;;14.06;25.24;100086.50;5124543;27;20190;-93
2022/03/23 08:57:17;;;;;;;2.93;1.20;;;;;;;14.09;24.94;100084.56;5135606;27;20202;-90
2022/03/23 08:59:43;;;;;;;2.77;1.10;;;;;;;14.12;25.72;100096.75;5136402;27;20551;-91
2022/03/23 09:02:08;;;;;;;1.33;0.77;;;;;;;14.32;24.73;100083.41;5135645;27;20552;-93
2022/03/23 09:04:39;;;;;;;1.30;0.80;;;;;;;14.29;24.98;100090.56;5135817;27;20174;-94
2022/03/23 09:07:05;;;;;;;6.80;1.37;;;;;;;14.43;24.52;100080.19;5135849;27;20542;-91
2022/03/23 09:09:30;;;;;;;2.33;0.80;;;;;;;14.72;25.07;100071.56;5135762;27;20211;-91
2022/03/23 09:11:56;;;;;;;1.47;0.73;;;;;;;14.89;23.74;100066.19;5135261;27;20178;-91
2022/03/23 09:14:22;;;;;;;2.07;1.00;;;;;;;14.99;25.76;100071.84;5117761;27;20589;-92
2022/03/23 09:16:48;;;;;;;1.80;1.10;;;;;;;15.36;23.89;100061.72;5135618;27;20171;-93
2022/03/23 09:19:20;;;;;;;2.90;0.90;;;;;;;15.24;24.60;100058.94;5134398;27;20209;-92
2022/03/23 09:22:03;;;;;;;;;;;;;;;;;;;;;
2022/03/23 09:24:34;;;;;;;1.53;0.63;;;;;;;15.55;23.04;100056.28;5135287;27;20616;-92
2022/03/23 09:27:03;;;;;;;3.30;1.30;;;;;;;15.46;22.72;100053.31;5135606;27;20167;-93
2022/03/23 09:29:57;;;;;;;1.47;1.00;;;;;;;15.83;23.58;100051.06;5117418;27;20209;-95
2022/03/23 09:32:23;;;;;;;1.97;0.97;;;;;;;15.38;23.16;100044.00;5117618;27;20269;-93
2022/03/23 09:34:51;;;;;;;0.90;0.60;;;;;;;14.80;23.33;100050.03;5113030;27;20171;-94
2022/03/23 09:40:09;;;;;;;2.73;1.30;;;;;;;15.17;24.28;100039.94;5130429;27;20276;-93
2022/03/23 09:42:42;;;;;;;1.67;0.87;;;;;;;14.86;22.44;100034.69;5117034;27;20174;-95
2022/03/23 09:45:08;;;;;;;1.70;1.13;;;;;;;14.86;23.53;100039.13;5109148;27;20201;-92
2022/03/23 09:47:33;;;;;;;6.10;1.23;;;;;;;14.95;23.28;100034.19;5124801;27;20238;-90
2022/03/23 09:50:02;;;;;;;3.73;1.27;;;;;;;15.06;22.86;100033.56;5102910;27;20671;-94
2022/03/23 09:52:36;;;;;;;1.63;1.00;;;;;;;15.34;23.23;100029.28;5124551;27;20635;-95
2022/03/23 09:55:01;;;;;;;1.73;0.53;;;;;;;15.46;24.09;100032.19;5104309;27;20183;-88
2022/03/23 09:57:27;;;;;;;2.97;0.90;;;;;;;15.57;22.71;100027.97;5122043;27;20194;-89
2022/03/23 09:59:53;;;;;;;1.87;1.50;;;;;;;15.48;23.27;100027.66;5120558;27;20301;-89
2022/03/23 10:03:10;;;;;;;1.43;0.80;;;;;;;15.17;23.55;100024.09;5123010;27;20200;-88
2022/03/23 10:05:42;;;;;;;1.47;0.80;;;;;;;15.16;22.46;100027.69;5123982;27;20206;-88
2022/03/23 10:08:46;;;;;;;2.73;1.07;;;;;;;15.38;23.15;100016.75;5109554;27;20191;-90
2022/03/23 10:11:39;;;;;;;2.90;1.03;;;;;;;15.93;22.67;100014.34;5099849;27;20219;-89
2022/03/23 10:14:26;;;;;;;1.90;1.00;;;;;;;16.05;22.32;100025.97;5106498;27;20266;-90
2022/03/23 10:17:29;;;;;;;1.33;0.73;;;;;;;16.16;22.61;100021.75;5133735;27;20640;-89
2022/03/23 10:19:55;;;;;;;1.63;0.70;;;;;;;16.26;22.40;100011.44;5134301;27;20177;-88
2022/03/23 10:22:27;;;;;;;1.43;1.00;;;;;;;15.96;22.01;100006.22;5116447;27;20577;-89
2022/03/23 10:24:53;;;;;;;1.90;0.90;;;;;;;16.17;21.09;100004.06;5134330;27;20165;-89
2022/03/23 10:27:32;;;;;;;1.67;0.80;;;;;;;16.49;21.05;99998.47;5134303;27;20506;-92
2022/03/23 10:29:57;;;;;;;2.23;1.13;;;;;;;16.31;21.29;99993.47;5134524;27;20623;-88
2022/03/23 10:32:34;;;;;;;4.43;1.60;;;;;;;15.93;22.05;100009.91;5120314;28;20182;-88
2022/03/23 10:35:01;;;;;;;1.67;0.80;;;;;;;15.68;21.77;100014.09;5114227;28;20505;-87
2022/03/23 10:37:32;;;;;;;5.10;0.90;;;;;;;15.74;22.81;100001.38;5113490;28;20179;-90
2022/03/23 10:40:01;;;;;;;7.30;1.37;;;;;;;15.94;22.34;99995.75;5095614;28;20255;-90
2022/03/23 10:42:31;;;;;;;1.87;0.83;;;;;;;16.01;22.19;99990.09;5113912;28;20169;-90
2022/03/23 10:45:16;;;;;;;1.27;0.77;;;;;;;16.37;21.57;99983.38;5114379;28;20511;-91
2022/03/23 10:48:51;;;;;;;3.57;1.00;;;;;;;16.63;22.87;99981.75;5114232;28;20257;-90
2022/03/23 10:52:12;;;;;;;1.90;0.87;;;;;;;16.58;20.57;99967.97;5077703;28;20210;-90
2022/03/23 10:55:07;;;;;;;2.03;1.20;;;;;;;16.52;20.85;99973.59;5102280;28;20569;-92
2022/03/23 10:57:57;;;;;;;2.07;0.90;;;;;;;16.69;21.80;99972.56;5118139;28;20180;-93
2022/03/23 11:00:36;;;;;;;3.83;1.10;;;;;;;16.19;21.35;99968.66;5130295;27;20567;-90
2022/03/23 11:03:03;;;;;;;2.93;1.07;;;;;;;16.50;20.74;99954.31;5119959;27;20181;-89
2022/03/23 11:05:34;;;;;;;2.37;0.90;;;;;;;16.15;21.11;99939.81;5124662;27;20571;-88
2022/03/23 11:08:20;;;;;;;2.37;1.07;;;;;;;15.80;21.94;99960.53;5100736;28;20626;-89
2022/03/23 11:16:52;;;;;;;2.37;0.83;;;;;;;16.32;21.72;99939.63;5138345;27;20171;-91
2022/03/23 11:19:26;;;;;;;5.33;1.50;;;;;;;16.15;21.63;99945.97;5138084;27;20657;-87
2022/03/23 11:22:11;;;;;;;1.57;0.90;;;;;;;16.46;21.44;99919.25;5137863;27;20533;-89
2022/03/23 11:24:38;;;;;;;1.60;0.63;;;;;;;16.31;20.51;99940.56;5137801;27;20161;-88
2022/03/23 11:27:09;;;;;;;2.77;0.87;;;;;;;16.76;20.80;99934.16;5132304;27;20185;-87
2022/03/23 11:29:37;;;;;;;3.37;1.03;;;;;;;17.11;20.25;99927.38;5119228;27;20196;-90
2022/03/23 11:32:07;;;;;;;3.63;1.50;;;;;;;17.29;19.64;99920.84;5123809;27;20189;-90
2022/03/23 11:34:35;;;;;;;5.03;1.73;;;;;;;17.46;20.58;99925.00;5129520;27;20179;-89
2022/03/23 11:37:01;;;;;;;4.30;1.87;;;;;;;17.45;19.23;99921.47;5131225;27;20513;-90
2022/03/23 11:39:28;;;;;;;6.27;1.83;;;;;;;17.29;19.78;99920.84;5137479;27;20632;-91
2022/03/23 11:41:54;;;;;;;4.10;1.30;;;;;;;17.09;20.11;99918.66;5137299;27;20179;-89
2022/03/23 11:44:22;;;;;;;1.37;0.80;;;;;;;17.22;20.90;99922.19;5137426;27;20178;-88
2022/03/23 11:46:50;;;;;;;1.70;0.90;;;;;;;17.44;19.86;99921.59;5137413;27;20178;-91
2022/03/23 11:49:31;;;;;;;2.53;1.00;;;;;;;17.31;20.04;99924.25;5119349;27;20202;-89
2022/03/23 11:52:10;;;;;;;2.80;0.90;;;;;;;17.34;20.33;99910.78;5118980;27;20175;-89
2022/03/23 11:58:10;;;;;;;3.00;0.83;;;;;;;17.31;19.70;99897.75;5136225;27;20169;-90
2022/03/23 12:00:45;;;;;;;2.93;0.83;;;;;;;17.30;19.36;99906.63;5136034;27;20161;-91